sensor_id;sensor_type;location;lat;lon;timestamp;temperature;humidity
14370;DHT22;7268;50.792;0.252;2024-01-16T00:01:43;-1.70;97.30
14370;DHT22;7268;50.792;0.252;2024-01-16T00:04:10;-1.70;97.40
14370;DHT22;7268;50.792;0.252;2024-01-16T00:06:41;-1.70;97.40
14370;DHT22;7268;50.792;0.252;2024-01-16T00:09:12;-1.70;97.60
14370;DHT22;7268;50.792;0.252;2024-01-16T00:11:42;-1.70;97.40
14370;DHT22;7268;50.792;0.252;2024-01-16T00:14:10;-1.70;97.40
14370;DHT22;7268;50.792;0.252;2024-01-16T00:16:46;-1.60;97.50
14370;DHT22;7268;50.792;0.252;2024-01-16T00:19:14;-1.60;97.30
14370;DHT22;7268;50.792;0.252;2024-01-16T00:21:42;-1.70;97.20
14370;DHT22;7268;50.792;0.252;2024-01-16T00:24:09;-1.60;97.30
14370;DHT22;7268;50.792;0.252;2024-01-16T00:26:36;-1.70;97.10
14370;DHT22;7268;50.792;0.252;2024-01-16T00:29:03;-1.70;97.20
14370;DHT22;7268;50.792;0.252;2024-01-16T00:31:30;-1.70;97.20
14370;DHT22;7268;50.792;0.252;2024-01-16T00:33:57;-1.70;97.20
14370;DHT22;7268;50.792;0.252;2024-01-16T00:36:24;-1.70;97.30
14370;DHT22;7268;50.792;0.252;2024-01-16T00:38:51;-1.70;97.30
14370;DHT22;7268;50.792;0.252;2024-01-16T00:41:18;-1.70;97.20
14370;DHT22;7268;50.792;0.252;2024-01-16T00:43:45;-1.70;97.20
14370;DHT22;7268;50.792;0.252;2024-01-16T00:46:13;-1.70;97.20
14370;DHT22;7268;50.792;0.252;2024-01-16T00:48:40;-1.60;97.10
14370;DHT22;7268;50.792;0.252;2024-01-16T00:51:07;-1.70;96.90
14370;DHT22;7268;50.792;0.252;2024-01-16T00:53:42;-1.70;96.70
14370;DHT22;7268;50.792;0.252;2024-01-16T00:56:10;-1.70;96.70
14370;DHT22;7268;50.792;0.252;2024-01-16T00:58:37;-1.80;96.60
14370;DHT22;7268;50.792;0.252;2024-01-16T01:01:04;-1.80;96.90
14370;DHT22;7268;50.792;0.252;2024-01-16T01:03:31;-1.80;96.90
14370;DHT22;7268;50.792;0.252;2024-01-16T01:06:00;-1.80;96.90
14370;DHT22;7268;50.792;0.252;2024-01-16T01:08:27;-1.90;96.90
14370;DHT22;7268;50.792;0.252;2024-01-16T01:10:54;-1.90;96.90
14370;DHT22;7268;50.792;0.252;2024-01-16T01:13:22;-2.00;96.90
14370;DHT22;7268;50.792;0.252;2024-01-16T01:15:49;-2.10;97.00
14370;DHT22;7268;50.792;0.252;2024-01-16T01:18:16;-2.10;97.00
14370;DHT22;7268;50.792;0.252;2024-01-16T01:20:43;-2.10;97.40
14370;DHT22;7268;50.792;0.252;2024-01-16T01:23:10;-2.10;97.30
14370;DHT22;7268;50.792;0.252;2024-01-16T01:25:37;-2.10;97.30
14370;DHT22;7268;50.792;0.252;2024-01-16T01:28:08;-2.00;97.30
14370;DHT22;7268;50.792;0.252;2024-01-16T01:30:35;-2.00;97.30
14370;DHT22;7268;50.792;0.252;2024-01-16T01:33:01;-2.00;97.20
14370;DHT22;7268;50.792;0.252;2024-01-16T01:35:29;-2.00;97.00
14370;DHT22;7268;50.792;0.252;2024-01-16T01:37:56;-2.00;97.00
14370;DHT22;7268;50.792;0.252;2024-01-16T01:40:23;-2.10;96.90
14370;DHT22;7268;50.792;0.252;2024-01-16T01:42:50;-2.10;96.90
14370;DHT22;7268;50.792;0.252;2024-01-16T01:45:17;-2.20;97.00
14370;DHT22;7268;50.792;0.252;2024-01-16T01:47:44;-2.20;97.30
14370;DHT22;7268;50.792;0.252;2024-01-16T01:50:13;-2.20;97.20
14370;DHT22;7268;50.792;0.252;2024-01-16T01:52:41;-2.20;97.20
14370;DHT22;7268;50.792;0.252;2024-01-16T01:55:11;-2.30;97.20
14370;DHT22;7268;50.792;0.252;2024-01-16T01:57:40;-2.40;97.30
14370;DHT22;7268;50.792;0.252;2024-01-16T02:00:07;-2.40;97.40
14370;DHT22;7268;50.792;0.252;2024-01-16T02:02:34;-2.50;97.50
14370;DHT22;7268;50.792;0.252;2024-01-16T02:05:02;-2.60;97.40
14370;DHT22;7268;50.792;0.252;2024-01-16T02:07:31;-2.60;97.60
14370;DHT22;7268;50.792;0.252;2024-01-16T02:10:00;-2.60;97.80
14370;DHT22;7268;50.792;0.252;2024-01-16T02:12:27;-2.60;98.00
14370;DHT22;7268;50.792;0.252;2024-01-16T02:14:54;-2.70;98.00
14370;DHT22;7268;50.792;0.252;2024-01-16T02:17:21;-2.70;98.10
14370;DHT22;7268;50.792;0.252;2024-01-16T02:19:48;-2.70;98.50
14370;DHT22;7268;50.792;0.252;2024-01-16T02:22:20;-2.80;98.30
14370;DHT22;7268;50.792;0.252;2024-01-16T02:24:48;-2.80;98.40
14370;DHT22;7268;50.792;0.252;2024-01-16T02:27:16;-2.90;98.40
14370;DHT22;7268;50.792;0.252;2024-01-16T02:29:43;-2.90;98.50
14370;DHT22;7268;50.792;0.252;2024-01-16T02:32:12;-3.00;98.60
14370;DHT22;7268;50.792;0.252;2024-01-16T02:34:40;-3.10;98.70
14370;DHT22;7268;50.792;0.252;2024-01-16T02:37:08;-3.20;98.80
14370;DHT22;7268;50.792;0.252;2024-01-16T02:39:35;-3.10;99.00
14370;DHT22;7268;50.792;0.252;2024-01-16T02:42:02;-3.10;99.10
14370;DHT22;7268;50.792;0.252;2024-01-16T02:44:29;-3.10;99.10
14370;DHT22;7268;50.792;0.252;2024-01-16T02:46:56;-3.10;99.20
14370;DHT22;7268;50.792;0.252;2024-01-16T02:49:23;-3.10;99.30
14370;DHT22;7268;50.792;0.252;2024-01-16T02:51:53;-3.10;99.50
14370;DHT22;7268;50.792;0.252;2024-01-16T02:54:20;-3.10;99.80
14370;DHT22;7268;50.792;0.252;2024-01-16T02:56:46;-3.10;99.80
14370;DHT22;7268;50.792;0.252;2024-01-16T02:59:14;-3.10;99.90
14370;DHT22;7268;50.792;0.252;2024-01-16T03:01:40;-3.10;99.90
14370;DHT22;7268;50.792;0.252;2024-01-16T03:04:07;-3.20;99.80
14370;DHT22;7268;50.792;0.252;2024-01-16T03:06:34;-3.20;99.90
14370;DHT22;7268;50.792;0.252;2024-01-16T03:09:01;-3.30;99.90
14370;DHT22;7268;50.792;0.252;2024-01-16T03:11:28;-3.30;99.90
14370;DHT22;7268;50.792;0.252;2024-01-16T03:13:59;-3.30;99.90
14370;DHT22;7268;50.792;0.252;2024-01-16T03:16:27;-3.30;99.90
14370;DHT22;7268;50.792;0.252;2024-01-16T03:18:54;-3.40;99.90
14370;DHT22;7268;50.792;0.252;2024-01-16T03:21:21;-3.40;99.90
14370;DHT22;7268;50.792;0.252;2024-01-16T03:23:48;-3.40;99.90
14370;DHT22;7268;50.792;0.252;2024-01-16T03:26:16;-3.40;99.90
14370;DHT22;7268;50.792;0.252;2024-01-16T03:28:43;-3.40;99.90
14370;DHT22;7268;50.792;0.252;2024-01-16T03:31:12;-3.40;99.90
14370;DHT22;7268;50.792;0.252;2024-01-16T03:33:40;-3.40;99.90
14370;DHT22;7268;50.792;0.252;2024-01-16T03:36:10;-3.50;99.90
14370;DHT22;7268;50.792;0.252;2024-01-16T03:38:38;-3.50;99.90
14370;DHT22;7268;50.792;0.252;2024-01-16T03:41:05;-3.40;99.90
14370;DHT22;7268;50.792;0.252;2024-01-16T03:43:34;-3.40;99.90
14370;DHT22;7268;50.792;0.252;2024-01-16T03:46:01;-3.30;99.90
14370;DHT22;7268;50.792;0.252;2024-01-16T03:48:28;-3.30;99.90
14370;DHT22;7268;50.792;0.252;2024-01-16T03:50:56;-3.30;99.90
14370;DHT22;7268;50.792;0.252;2024-01-16T03:53:25;-3.30;99.90
14370;DHT22;7268;50.792;0.252;2024-01-16T03:55:52;-3.20;99.90
14370;DHT22;7268;50.792;0.252;2024-01-16T03:58:19;-3.20;99.90
14370;DHT22;7268;50.792;0.252;2024-01-16T04:00:46;-3.10;99.90
14370;DHT22;7268;50.792;0.252;2024-01-16T04:03:14;-3.10;99.90
14370;DHT22;7268;50.792;0.252;2024-01-16T04:05:40;-3.10;99.90
14370;DHT22;7268;50.792;0.252;2024-01-16T04:08:08;-3.00;99.90
14370;DHT22;7268;50.792;0.252;2024-01-16T04:10:35;-2.90;99.90
14370;DHT22;7268;50.792;0.252;2024-01-16T04:13:02;-2.90;99.90
14370;DHT22;7268;50.792;0.252;2024-01-16T04:15:29;-3.00;99.90
14370;DHT22;7268;50.792;0.252;2024-01-16T04:17:56;-2.90;99.90
14370;DHT22;7268;50.792;0.252;2024-01-16T04:20:24;-3.00;99.90
14370;DHT22;7268;50.792;0.252;2024-01-16T04:22:51;-3.10;99.90
14370;DHT22;7268;50.792;0.252;2024-01-16T04:25:18;-3.00;99.90
14370;DHT22;7268;50.792;0.252;2024-01-16T04:27:45;-3.10;99.90
14370;DHT22;7268;50.792;0.252;2024-01-16T04:30:13;-3.20;99.90
14370;DHT22;7268;50.792;0.252;2024-01-16T04:32:40;-3.10;99.90
14370;DHT22;7268;50.792;0.252;2024-01-16T04:35:07;-3.10;99.90
14370;DHT22;7268;50.792;0.252;2024-01-16T04:37:34;-3.10;99.90
14370;DHT22;7268;50.792;0.252;2024-01-16T04:40:01;-3.10;99.90
14370;DHT22;7268;50.792;0.252;2024-01-16T04:42:28;-3.10;99.90
14370;DHT22;7268;50.792;0.252;2024-01-16T04:44:55;-3.10;99.90
14370;DHT22;7268;50.792;0.252;2024-01-16T04:47:22;-3.10;99.90
14370;DHT22;7268;50.792;0.252;2024-01-16T04:49:50;-3.10;99.90
14370;DHT22;7268;50.792;0.252;2024-01-16T04:52:17;-2.90;99.90
14370;DHT22;7268;50.792;0.252;2024-01-16T04:54:43;-2.90;99.90
14370;DHT22;7268;50.792;0.252;2024-01-16T04:57:12;-2.80;99.90
14370;DHT22;7268;50.792;0.252;2024-01-16T04:59:39;-2.80;99.90
14370;DHT22;7268;50.792;0.252;2024-01-16T05:02:06;-2.80;99.90
14370;DHT22;7268;50.792;0.252;2024-01-16T05:04:37;-2.80;99.90
14370;DHT22;7268;50.792;0.252;2024-01-16T05:07:04;-2.80;99.90
14370;DHT22;7268;50.792;0.252;2024-01-16T05:09:31;-2.90;99.90
14370;DHT22;7268;50.792;0.252;2024-01-16T05:11:59;-2.80;99.90
14370;DHT22;7268;50.792;0.252;2024-01-16T05:14:26;-2.80;99.90
14370;DHT22;7268;50.792;0.252;2024-01-16T05:16:53;-2.80;99.90
14370;DHT22;7268;50.792;0.252;2024-01-16T05:19:20;-2.80;99.90
14370;DHT22;7268;50.792;0.252;2024-01-16T05:21:47;-2.80;99.90
14370;DHT22;7268;50.792;0.252;2024-01-16T05:24:13;-2.90;99.90
14370;DHT22;7268;50.792;0.252;2024-01-16T05:26:40;-3.00;99.90
14370;DHT22;7268;50.792;0.252;2024-01-16T05:29:08;-3.00;99.90
14370;DHT22;7268;50.792;0.252;2024-01-16T05:31:40;-3.10;99.90
14370;DHT22;7268;50.792;0.252;2024-01-16T05:34:09;-3.20;99.90
14370;DHT22;7268;50.792;0.252;2024-01-16T05:36:36;-3.30;99.90
14370;DHT22;7268;50.792;0.252;2024-01-16T05:39:03;-3.30;99.90
14370;DHT22;7268;50.792;0.252;2024-01-16T05:41:34;-3.30;99.90
14370;DHT22;7268;50.792;0.252;2024-01-16T05:44:01;-3.30;99.90
14370;DHT22;7268;50.792;0.252;2024-01-16T05:46:34;-3.40;99.90
14370;DHT22;7268;50.792;0.252;2024-01-16T05:49:01;-3.30;99.90
14370;DHT22;7268;50.792;0.252;2024-01-16T05:51:28;-3.30;99.90
14370;DHT22;7268;50.792;0.252;2024-01-16T05:53:56;-3.30;99.90
14370;DHT22;7268;50.792;0.252;2024-01-16T05:56:23;-3.30;99.90
14370;DHT22;7268;50.792;0.252;2024-01-16T05:58:50;-3.30;99.90
14370;DHT22;7268;50.792;0.252;2024-01-16T06:01:18;-3.40;99.90
14370;DHT22;7268;50.792;0.252;2024-01-16T06:03:45;-3.50;99.90
14370;DHT22;7268;50.792;0.252;2024-01-16T06:06:16;-3.50;99.90
14370;DHT22;7268;50.792;0.252;2024-01-16T06:08:43;-3.60;99.90
14370;DHT22;7268;50.792;0.252;2024-01-16T06:11:10;-3.60;99.90
14370;DHT22;7268;50.792;0.252;2024-01-16T06:13:40;-3.60;99.90
14370;DHT22;7268;50.792;0.252;2024-01-16T06:16:07;-3.70;99.90
14370;DHT22;7268;50.792;0.252;2024-01-16T06:18:37;-3.70;99.90
14370;DHT22;7268;50.792;0.252;2024-01-16T06:21:06;-3.70;99.90
14370;DHT22;7268;50.792;0.252;2024-01-16T06:23:33;-3.70;99.90
14370;DHT22;7268;50.792;0.252;2024-01-16T06:26:00;-3.80;99.90
14370;DHT22;7268;50.792;0.252;2024-01-16T06:28:27;-3.80;99.90
14370;DHT22;7268;50.792;0.252;2024-01-16T06:30:54;-3.80;99.90
14370;DHT22;7268;50.792;0.252;2024-01-16T06:33:24;-3.80;99.90
14370;DHT22;7268;50.792;0.252;2024-01-16T06:35:55;-3.90;99.90
14370;DHT22;7268;50.792;0.252;2024-01-16T06:38:23;-3.80;99.90
14370;DHT22;7268;50.792;0.252;2024-01-16T06:40:49;-3.80;99.90
14370;DHT22;7268;50.792;0.252;2024-01-16T06:43:16;-3.70;99.90
14370;DHT22;7268;50.792;0.252;2024-01-16T06:45:43;-3.70;99.90
14370;DHT22;7268;50.792;0.252;2024-01-16T06:48:11;-3.60;99.90
14370;DHT22;7268;50.792;0.252;2024-01-16T06:50:38;-3.60;99.90
14370;DHT22;7268;50.792;0.252;2024-01-16T06:53:05;-3.60;99.90
14370;DHT22;7268;50.792;0.252;2024-01-16T06:55:33;-3.50;99.90
14370;DHT22;7268;50.792;0.252;2024-01-16T06:58:00;-3.30;99.90
14370;DHT22;7268;50.792;0.252;2024-01-16T07:00:26;-3.40;99.90
14370;DHT22;7268;50.792;0.252;2024-01-16T07:02:54;-3.40;99.90
14370;DHT22;7268;50.792;0.252;2024-01-16T07:05:21;-3.30;99.90
14370;DHT22;7268;50.792;0.252;2024-01-16T07:07:49;-3.40;99.90
14370;DHT22;7268;50.792;0.252;2024-01-16T07:10:16;-3.30;99.90
14370;DHT22;7268;50.792;0.252;2024-01-16T07:12:48;-3.40;99.90
14370;DHT22;7268;50.792;0.252;2024-01-16T07:15:16;-3.40;99.90
14370;DHT22;7268;50.792;0.252;2024-01-16T07:17:43;-3.40;99.90
14370;DHT22;7268;50.792;0.252;2024-01-16T07:20:10;-3.40;99.90
14370;DHT22;7268;50.792;0.252;2024-01-16T07:22:38;-3.40;99.90
14370;DHT22;7268;50.792;0.252;2024-01-16T07:25:07;-3.40;99.90
14370;DHT22;7268;50.792;0.252;2024-01-16T07:27:34;-3.30;99.90
14370;DHT22;7268;50.792;0.252;2024-01-16T07:30:04;-3.30;99.90
14370;DHT22;7268;50.792;0.252;2024-01-16T07:32:31;-3.20;99.90
14370;DHT22;7268;50.792;0.252;2024-01-16T07:34:59;-3.20;99.90
14370;DHT22;7268;50.792;0.252;2024-01-16T07:37:26;-3.20;99.90
14370;DHT22;7268;50.792;0.252;2024-01-16T07:39:53;-3.00;99.90
14370;DHT22;7268;50.792;0.252;2024-01-16T07:42:20;-2.90;99.90
14370;DHT22;7268;50.792;0.252;2024-01-16T07:44:46;-2.90;99.90
14370;DHT22;7268;50.792;0.252;2024-01-16T07:47:13;-2.90;99.90
14370;DHT22;7268;50.792;0.252;2024-01-16T07:49:40;-2.80;99.90
14370;DHT22;7268;50.792;0.252;2024-01-16T07:52:09;-2.80;99.90
14370;DHT22;7268;50.792;0.252;2024-01-16T07:54:36;-2.80;99.90
14370;DHT22;7268;50.792;0.252;2024-01-16T07:57:02;-2.90;99.90
14370;DHT22;7268;50.792;0.252;2024-01-16T07:59:30;-2.90;99.90
14370;DHT22;7268;50.792;0.252;2024-01-16T08:01:57;-2.90;99.90
14370;DHT22;7268;50.792;0.252;2024-01-16T08:04:24;-2.90;99.90
14370;DHT22;7268;50.792;0.252;2024-01-16T08:06:52;-3.00;99.90
14370;DHT22;7268;50.792;0.252;2024-01-16T08:09:20;-3.00;99.90
14370;DHT22;7268;50.792;0.252;2024-01-16T08:11:47;-3.10;99.90
14370;DHT22;7268;50.792;0.252;2024-01-16T08:14:14;-3.10;99.90
14370;DHT22;7268;50.792;0.252;2024-01-16T08:16:41;-3.10;99.90
14370;DHT22;7268;50.792;0.252;2024-01-16T08:19:08;-3.20;99.90
14370;DHT22;7268;50.792;0.252;2024-01-16T08:21:35;-3.20;99.90
14370;DHT22;7268;50.792;0.252;2024-01-16T08:24:03;-3.30;99.90
14370;DHT22;7268;50.792;0.252;2024-01-16T08:26:30;-3.30;99.90
14370;DHT22;7268;50.792;0.252;2024-01-16T08:28:57;-3.20;99.90
14370;DHT22;7268;50.792;0.252;2024-01-16T08:31:24;-3.20;99.90
14370;DHT22;7268;50.792;0.252;2024-01-16T08:33:51;-2.40;99.90
14370;DHT22;7268;50.792;0.252;2024-01-16T08:36:20;-1.10;99.90
14370;DHT22;7268;50.792;0.252;2024-01-16T08:38:47;0.00;99.90
14370;DHT22;7268;50.792;0.252;2024-01-16T08:41:14;-0.10;99.90
14370;DHT22;7268;50.792;0.252;2024-01-16T08:43:41;0.20;99.90
14370;DHT22;7268;50.792;0.252;2024-01-16T08:46:08;0.20;99.90
14370;DHT22;7268;50.792;0.252;2024-01-16T08:48:35;0.00;99.90
14370;DHT22;7268;50.792;0.252;2024-01-16T08:51:07;0.00;99.90
14370;DHT22;7268;50.792;0.252;2024-01-16T08:53:34;-0.30;99.90
14370;DHT22;7268;50.792;0.252;2024-01-16T08:56:01;-0.50;99.90
14370;DHT22;7268;50.792;0.252;2024-01-16T08:58:29;-0.20;99.90
14370;DHT22;7268;50.792;0.252;2024-01-16T09:00:57;0.40;99.90
14370;DHT22;7268;50.792;0.252;2024-01-16T09:03:23;1.00;99.90
14370;DHT22;7268;50.792;0.252;2024-01-16T09:05:50;2.40;99.90
14370;DHT22;7268;50.792;0.252;2024-01-16T09:08:17;3.60;99.90
14370;DHT22;7268;50.792;0.252;2024-01-16T09:10:44;4.20;99.20
14370;DHT22;7268;50.792;0.252;2024-01-16T09:13:11;4.00;95.90
14370;DHT22;7268;50.792;0.252;2024-01-16T09:15:39;3.40;95.30
14370;DHT22;7268;50.792;0.252;2024-01-16T09:18:06;2.90;95.40
14370;DHT22;7268;50.792;0.252;2024-01-16T09:20:33;2.40;94.10
14370;DHT22;7268;50.792;0.252;2024-01-16T09:23:01;1.80;94.40
14370;DHT22;7268;50.792;0.252;2024-01-16T09:25:29;1.20;95.20
14370;DHT22;7268;50.792;0.252;2024-01-16T09:27:56;0.80;96.20
14370;DHT22;7268;50.792;0.252;2024-01-16T09:30:23;0.90;98.00
14370;DHT22;7268;50.792;0.252;2024-01-16T09:32:50;0.80;97.80
14370;DHT22;7268;50.792;0.252;2024-01-16T09:35:17;0.80;97.90
14370;DHT22;7268;50.792;0.252;2024-01-16T09:37:44;1.50;99.90
14370;DHT22;7268;50.792;0.252;2024-01-16T09:40:11;3.80;99.90
14370;DHT22;7268;50.792;0.252;2024-01-16T09:42:40;6.00;95.50
14370;DHT22;7268;50.792;0.252;2024-01-16T09:45:10;7.90;89.30
14370;DHT22;7268;50.792;0.252;2024-01-16T09:47:38;9.30;81.00
14370;DHT22;7268;50.792;0.252;2024-01-16T09:50:06;10.30;76.40
14370;DHT22;7268;50.792;0.252;2024-01-16T09:52:33;11.30;73.30
14370;DHT22;7268;50.792;0.252;2024-01-16T09:55:00;12.30;65.80
14370;DHT22;7268;50.792;0.252;2024-01-16T09:57:28;12.60;63.90
14370;DHT22;7268;50.792;0.252;2024-01-16T09:59:56;13.40;60.00
14370;DHT22;7268;50.792;0.252;2024-01-16T10:02:24;14.10;57.80
14370;DHT22;7268;50.792;0.252;2024-01-16T10:04:51;13.70;57.10
14370;DHT22;7268;50.792;0.252;2024-01-16T10:07:19;13.60;57.50
14370;DHT22;7268;50.792;0.252;2024-01-16T10:10:01;13.60;55.40
14370;DHT22;7268;50.792;0.252;2024-01-16T10:12:28;14.10;56.00
14370;DHT22;7268;50.792;0.252;2024-01-16T10:14:55;14.20;55.40
14370;DHT22;7268;50.792;0.252;2024-01-16T10:17:35;14.10;54.30
14370;DHT22;7268;50.792;0.252;2024-01-16T10:20:03;14.40;51.70
14370;DHT22;7268;50.792;0.252;2024-01-16T10:22:31;13.90;52.20
14370;DHT22;7268;50.792;0.252;2024-01-16T10:25:11;14.00;52.10
14370;DHT22;7268;50.792;0.252;2024-01-16T10:27:39;14.40;52.70
14370;DHT22;7268;50.792;0.252;2024-01-16T10:30:07;14.20;51.00
14370;DHT22;7268;50.792;0.252;2024-01-16T10:32:38;13.90;51.80
14370;DHT22;7268;50.792;0.252;2024-01-16T10:35:10;14.00;52.70
14370;DHT22;7268;50.792;0.252;2024-01-16T10:37:53;14.10;50.80
14370;DHT22;7268;50.792;0.252;2024-01-16T10:40:29;13.40;51.10
14370;DHT22;7268;50.792;0.252;2024-01-16T10:42:59;12.80;51.60
14370;DHT22;7268;50.792;0.252;2024-01-16T10:45:27;11.80;54.60
14370;DHT22;7268;50.792;0.252;2024-01-16T10:48:08;11.40;55.00
14370;DHT22;7268;50.792;0.252;2024-01-16T10:50:38;12.00;55.20
14370;DHT22;7268;50.792;0.252;2024-01-16T10:53:07;13.40;52.90
14370;DHT22;7268;50.792;0.252;2024-01-16T10:55:50;13.80;50.70
14370;DHT22;7268;50.792;0.252;2024-01-16T10:58:22;13.70;51.10
14370;DHT22;7268;50.792;0.252;2024-01-16T11:00:53;13.50;51.30
14370;DHT22;7268;50.792;0.252;2024-01-16T11:06:10;14.10;49.40
14370;DHT22;7268;50.792;0.252;2024-01-16T11:08:39;13.30;51.60
14370;DHT22;7268;50.792;0.252;2024-01-16T11:11:07;13.00;52.40
14370;DHT22;7268;50.792;0.252;2024-01-16T11:13:36;12.90;51.70
14370;DHT22;7268;50.792;0.252;2024-01-16T11:16:04;13.10;50.50
14370;DHT22;7268;50.792;0.252;2024-01-16T11:18:33;13.30;50.50
14370;DHT22;7268;50.792;0.252;2024-01-16T11:21:12;13.40;50.20
14370;DHT22;7268;50.792;0.252;2024-01-16T11:23:44;13.30;51.50
14370;DHT22;7268;50.792;0.252;2024-01-16T11:26:32;13.90;49.70
14370;DHT22;7268;50.792;0.252;2024-01-16T11:31:48;12.90;50.80
14370;DHT22;7268;50.792;0.252;2024-01-16T11:34:15;13.00;51.10
14370;DHT22;7268;50.792;0.252;2024-01-16T11:39:21;12.40;51.80
14370;DHT22;7268;50.792;0.252;2024-01-16T11:41:49;11.50;53.70
14370;DHT22;7268;50.792;0.252;2024-01-16T11:44:47;11.60;53.30
14370;DHT22;7268;50.792;0.252;2024-01-16T11:47:17;11.00;54.30
14370;DHT22;7268;50.792;0.252;2024-01-16T11:49:48;10.60;55.40
14370;DHT22;7268;50.792;0.252;2024-01-16T11:52:15;11.20;54.90
14370;DHT22;7268;50.792;0.252;2024-01-16T11:55:29;11.40;54.60
14370;DHT22;7268;50.792;0.252;2024-01-16T12:00:50;10.90;54.70
14370;DHT22;7268;50.792;0.252;2024-01-16T12:03:21;10.20;56.70
14370;DHT22;7268;50.792;0.252;2024-01-16T12:06:01;9.70;58.40
14370;DHT22;7268;50.792;0.252;2024-01-16T12:08:30;8.60;60.60
14370;DHT22;7268;50.792;0.252;2024-01-16T12:10:57;7.60;64.20
14370;DHT22;7268;50.792;0.252;2024-01-16T12:13:24;6.80;65.80
14370;DHT22;7268;50.792;0.252;2024-01-16T12:16:04;6.40;68.10
14370;DHT22;7268;50.792;0.252;2024-01-16T12:18:32;6.10;70.20
14370;DHT22;7268;50.792;0.252;2024-01-16T12:21:10;5.70;70.80
14370;DHT22;7268;50.792;0.252;2024-01-16T12:23:38;5.60;72.00
14370;DHT22;7268;50.792;0.252;2024-01-16T12:26:21;5.50;70.10
14370;DHT22;7268;50.792;0.252;2024-01-16T12:28:52;5.50;73.30
14370;DHT22;7268;50.792;0.252;2024-01-16T12:31:26;5.30;72.30
14370;DHT22;7268;50.792;0.252;2024-01-16T12:33:54;5.20;71.90
14370;DHT22;7268;50.792;0.252;2024-01-16T12:36:30;5.10;73.00
14370;DHT22;7268;50.792;0.252;2024-01-16T12:38:57;5.20;73.90
14370;DHT22;7268;50.792;0.252;2024-01-16T12:41:24;5.20;74.30
14370;DHT22;7268;50.792;0.252;2024-01-16T12:44:05;5.30;74.00
14370;DHT22;7268;50.792;0.252;2024-01-16T12:46:41;5.20;74.10
14370;DHT22;7268;50.792;0.252;2024-01-16T12:49:08;5.10;73.00
14370;DHT22;7268;50.792;0.252;2024-01-16T12:51:39;5.10;74.00
14370;DHT22;7268;50.792;0.252;2024-01-16T12:54:13;5.10;73.90
14370;DHT22;7268;50.792;0.252;2024-01-16T12:56:41;5.20;74.50
14370;DHT22;7268;50.792;0.252;2024-01-16T12:59:12;5.20;73.90
14370;DHT22;7268;50.792;0.252;2024-01-16T13:01:45;5.20;73.30
14370;DHT22;7268;50.792;0.252;2024-01-16T13:04:16;5.20;74.80
14370;DHT22;7268;50.792;0.252;2024-01-16T13:06:46;5.20;72.00
14370;DHT22;7268;50.792;0.252;2024-01-16T13:09:15;5.20;72.60
14370;DHT22;7268;50.792;0.252;2024-01-16T13:11:54;5.20;72.00
14370;DHT22;7268;50.792;0.252;2024-01-16T13:14:36;5.20;74.10
14370;DHT22;7268;50.792;0.252;2024-01-16T13:17:04;5.20;72.90
14370;DHT22;7268;50.792;0.252;2024-01-16T13:19:33;5.30;73.70
14370;DHT22;7268;50.792;0.252;2024-01-16T13:22:00;5.40;73.70
14370;DHT22;7268;50.792;0.252;2024-01-16T13:24:28;5.40;74.00
14370;DHT22;7268;50.792;0.252;2024-01-16T13:26:55;5.30;73.00
14370;DHT22;7268;50.792;0.252;2024-01-16T13:29:22;5.20;73.70
14370;DHT22;7268;50.792;0.252;2024-01-16T13:31:49;5.10;75.20
14370;DHT22;7268;50.792;0.252;2024-01-16T13:34:21;5.20;75.20
14370;DHT22;7268;50.792;0.252;2024-01-16T13:36:52;5.20;75.60
14370;DHT22;7268;50.792;0.252;2024-01-16T13:39:41;5.20;76.10
14370;DHT22;7268;50.792;0.252;2024-01-16T13:42:07;5.20;76.70
14370;DHT22;7268;50.792;0.252;2024-01-16T13:44:35;5.20;77.30
14370;DHT22;7268;50.792;0.252;2024-01-16T13:47:02;5.20;76.80
14370;DHT22;7268;50.792;0.252;2024-01-16T13:49:39;5.00;75.50
14370;DHT22;7268;50.792;0.252;2024-01-16T13:52:07;4.80;77.10
14370;DHT22;7268;50.792;0.252;2024-01-16T13:54:36;4.80;77.50
14370;DHT22;7268;50.792;0.252;2024-01-16T13:57:04;4.80;75.90
14370;DHT22;7268;50.792;0.252;2024-01-16T13:59:35;4.80;77.30
14370;DHT22;7268;50.792;0.252;2024-01-16T14:02:03;4.80;77.70
14370;DHT22;7268;50.792;0.252;2024-01-16T14:04:32;4.80;77.70
14370;DHT22;7268;50.792;0.252;2024-01-16T14:06:59;4.80;78.40
14370;DHT22;7268;50.792;0.252;2024-01-16T14:09:33;4.80;77.80
14370;DHT22;7268;50.792;0.252;2024-01-16T14:12:00;4.70;78.10
14370;DHT22;7268;50.792;0.252;2024-01-16T14:14:28;4.60;79.50
14370;DHT22;7268;50.792;0.252;2024-01-16T14:16:55;4.50;79.90
14370;DHT22;7268;50.792;0.252;2024-01-16T14:19:28;4.50;80.50
14370;DHT22;7268;50.792;0.252;2024-01-16T14:21:58;4.40;80.90
14370;DHT22;7268;50.792;0.252;2024-01-16T14:24:25;4.40;81.70
14370;DHT22;7268;50.792;0.252;2024-01-16T14:26:52;4.40;81.40
14370;DHT22;7268;50.792;0.252;2024-01-16T14:29:19;4.30;81.80
14370;DHT22;7268;50.792;0.252;2024-01-16T14:31:46;4.20;82.60
14370;DHT22;7268;50.792;0.252;2024-01-16T14:34:16;4.10;82.50
14370;DHT22;7268;50.792;0.252;2024-01-16T14:36:46;4.10;83.20
14370;DHT22;7268;50.792;0.252;2024-01-16T14:39:13;4.00;82.90
14370;DHT22;7268;50.792;0.252;2024-01-16T14:41:45;4.00;84.10
14370;DHT22;7268;50.792;0.252;2024-01-16T14:44:13;4.00;84.10
14370;DHT22;7268;50.792;0.252;2024-01-16T14:46:40;4.00;84.30
14370;DHT22;7268;50.792;0.252;2024-01-16T14:49:11;3.90;84.50
14370;DHT22;7268;50.792;0.252;2024-01-16T14:51:38;3.80;85.30
14370;DHT22;7268;50.792;0.252;2024-01-16T14:54:05;3.80;85.70
14370;DHT22;7268;50.792;0.252;2024-01-16T14:56:32;3.80;86.10
14370;DHT22;7268;50.792;0.252;2024-01-16T14:59:00;3.70;86.30
14370;DHT22;7268;50.792;0.252;2024-01-16T15:01:27;3.70;86.50
14370;DHT22;7268;50.792;0.252;2024-01-16T15:03:54;3.60;86.90
14370;DHT22;7268;50.792;0.252;2024-01-16T15:06:23;3.60;87.20
14370;DHT22;7268;50.792;0.252;2024-01-16T15:08:55;3.50;88.20
14370;DHT22;7268;50.792;0.252;2024-01-16T15:11:23;3.50;88.60
14370;DHT22;7268;50.792;0.252;2024-01-16T15:13:54;3.40;89.20
14370;DHT22;7268;50.792;0.252;2024-01-16T15:16:24;3.30;89.60
14370;DHT22;7268;50.792;0.252;2024-01-16T15:18:52;3.20;90.00
14370;DHT22;7268;50.792;0.252;2024-01-16T15:21:19;3.20;90.30
14370;DHT22;7268;50.792;0.252;2024-01-16T15:23:46;3.10;90.50
14370;DHT22;7268;50.792;0.252;2024-01-16T15:26:14;3.00;90.90
14370;DHT22;7268;50.792;0.252;2024-01-16T15:28:47;3.00;91.10
14370;DHT22;7268;50.792;0.252;2024-01-16T15:31:16;2.90;91.10
14370;DHT22;7268;50.792;0.252;2024-01-16T15:33:45;2.80;91.20
14370;DHT22;7268;50.792;0.252;2024-01-16T15:36:12;2.80;91.40
14370;DHT22;7268;50.792;0.252;2024-01-16T15:38:39;2.70;91.70
14370;DHT22;7268;50.792;0.252;2024-01-16T15:41:06;2.60;92.00
14370;DHT22;7268;50.792;0.252;2024-01-16T15:43:33;2.50;92.30
14370;DHT22;7268;50.792;0.252;2024-01-16T15:46:00;2.50;92.40
14370;DHT22;7268;50.792;0.252;2024-01-16T15:48:27;2.40;92.70
14370;DHT22;7268;50.792;0.252;2024-01-16T15:51:00;2.30;92.90
14370;DHT22;7268;50.792;0.252;2024-01-16T15:53:27;2.20;93.10
14370;DHT22;7268;50.792;0.252;2024-01-16T15:55:54;2.20;93.30
14370;DHT22;7268;50.792;0.252;2024-01-16T15:58:21;2.00;93.60
14370;DHT22;7268;50.792;0.252;2024-01-16T16:00:48;1.90;93.70
14370;DHT22;7268;50.792;0.252;2024-01-16T16:03:15;1.70;93.80
14370;DHT22;7268;50.792;0.252;2024-01-16T16:05:43;1.50;94.00
14370;DHT22;7268;50.792;0.252;2024-01-16T16:08:10;1.40;94.50
14370;DHT22;7268;50.792;0.252;2024-01-16T16:10:37;1.30;94.80